createdAt,value
2023-01-02T00:00:34.477Z,10.24
2023-01-02T00:03:01.340Z,10.29
2023-01-02T00:05:28.396Z,10.24
2023-01-02T00:07:55.629Z,10.21
2023-01-02T00:10:22.424Z,10.23
2023-01-02T00:12:49.204Z,10.23
2023-01-02T00:15:15.984Z,10.27
2023-01-02T00:17:42.711Z,10.21
2023-01-02T00:20:09.960Z,10.15
2023-01-02T00:22:36.822Z,10.12
2023-01-02T00:25:03.890Z,10.12
2023-01-02T00:27:30.769Z,10.13
2023-01-02T00:29:57.503Z,10.13
2023-01-02T00:32:25.620Z,10.09
2023-01-02T00:34:52.509Z,10.04
2023-01-02T00:37:19.401Z,10.08
2023-01-02T00:39:46.078Z,10.01
2023-01-02T00:42:12.954Z,10.03
2023-01-02T00:44:39.646Z,10.12
2023-01-02T00:47:06.605Z,10.06
2023-01-02T00:49:33.567Z,10.04
2023-01-02T00:52:00.398Z,9.99
2023-01-02T00:54:27.123Z,9.93
2023-01-02T00:56:53.931Z,9.91
2023-01-02T00:59:20.575Z,9.96
2023-01-02T01:01:47.395Z,9.97
2023-01-02T01:04:15.129Z,9.88
2023-01-02T01:06:41.956Z,9.96
2023-01-02T01:09:08.700Z,10.01
2023-01-02T01:11:35.477Z,10.00
2023-01-02T01:14:02.252Z,10.01
2023-01-02T01:16:30.493Z,10.04
2023-01-02T01:18:57.727Z,10.05
2023-01-02T01:21:24.627Z,9.96
2023-01-02T01:23:53.644Z,9.94
2023-01-02T01:26:21.477Z,9.99
2023-01-02T01:28:48.934Z,9.97
2023-01-02T01:31:16.924Z,9.90
2023-01-02T01:33:44.532Z,9.92
2023-01-02T01:36:19.212Z,9.91
2023-01-02T01:38:46.607Z,9.96
2023-01-02T01:41:15.754Z,9.98
2023-01-02T01:43:51.098Z,9.90
2023-01-02T01:46:31.074Z,9.92
2023-01-02T01:49:03.698Z,9.93
2023-01-02T01:51:33.240Z,9.94
2023-01-02T01:54:11.056Z,9.89
2023-01-02T01:56:43.516Z,9.85
2023-01-02T01:59:11.162Z,9.84
2023-01-02T02:01:40.460Z,9.89
2023-01-02T02:04:07.818Z,9.91
2023-01-02T02:06:34.629Z,9.92
2023-01-02T02:09:11.330Z,9.98
2023-01-02T02:11:38.570Z,9.96
2023-01-02T02:14:05.330Z,9.96
2023-01-02T02:16:45.138Z,9.96
2023-01-02T02:19:46.060Z,9.95
2023-01-02T02:22:50.527Z,9.93
2023-01-02T02:25:38.875Z,9.95
2023-01-02T02:28:14.479Z,9.91
2023-01-02T02:30:53.656Z,9.91
2023-01-02T02:33:40.303Z,9.91
2023-01-02T02:36:27.353Z,9.95
2023-01-02T02:39:06.349Z,9.96
2023-01-02T02:41:36.429Z,9.95
2023-01-02T02:44:30.956Z,9.91
2023-01-02T02:47:07.842Z,9.96
2023-01-02T02:50:02.505Z,9.99
2023-01-02T02:52:43.295Z,9.97
2023-01-02T02:55:19.838Z,9.93
2023-01-02T02:57:47.613Z,9.97
2023-01-02T03:00:19.683Z,9.91
2023-01-02T03:02:46.893Z,9.95
2023-01-02T03:05:25.264Z,9.96
2023-01-02T03:08:12.147Z,9.96
2023-01-02T03:11:00.359Z,9.99
2023-01-02T03:13:41.262Z,9.98
2023-01-02T03:16:36.504Z,10.03
2023-01-02T03:19:09.051Z,10.00
2023-01-02T03:21:49.622Z,10.00
2023-01-02T03:24:20.040Z,9.96
2023-01-02T03:26:51.558Z,9.94
2023-01-02T03:29:29.228Z,9.95
2023-01-02T03:31:57.673Z,9.91
2023-01-02T03:34:27.848Z,9.97
2023-01-02T03:37:02.563Z,9.91
2023-01-02T03:39:32.670Z,9.90
2023-01-02T03:42:14.574Z,9.88
2023-01-02T03:44:47.316Z,9.93
2023-01-02T03:47:41.990Z,9.89
2023-01-02T03:50:21.887Z,9.96
2023-01-02T03:52:48.688Z,9.92
2023-01-02T03:55:15.870Z,9.91
2023-01-02T03:57:57.512Z,9.97
2023-01-02T04:00:35.701Z,9.89
2023-01-02T04:03:08.639Z,9.89
2023-01-02T04:05:40.619Z,9.93
2023-01-02T04:08:58.491Z,9.93
2023-01-02T04:11:27.927Z,9.92
2023-01-02T04:14:00.438Z,9.91
2023-01-02T04:16:33.391Z,9.94
2023-01-02T04:19:10.485Z,9.91
2023-01-02T04:21:39.907Z,9.91
2023-01-02T04:24:21.662Z,9.97
2023-01-02T04:26:54.811Z,9.90
2023-01-02T04:29:21.761Z,9.90
2023-01-02T04:31:56.056Z,9.91
2023-01-02T04:34:26.716Z,9.92
2023-01-02T04:36:53.400Z,9.93
2023-01-02T04:39:22.650Z,9.98
2023-01-02T04:41:49.356Z,10.00
2023-01-02T04:44:16.095Z,9.99
2023-01-02T04:46:42.877Z,10.03
2023-01-02T04:49:10.412Z,10.05
2023-01-02T04:51:37.095Z,10.08
2023-01-02T04:54:04.145Z,10.09
2023-01-02T04:56:31.090Z,10.11
2023-01-02T04:58:57.792Z,10.12
2023-01-02T05:01:24.715Z,10.12
2023-01-02T05:03:52.885Z,10.14
2023-01-02T05:06:20.312Z,10.12
2023-01-02T05:08:47.045Z,10.11
2023-01-02T05:11:16.592Z,10.13
2023-01-02T05:13:43.598Z,10.13
2023-01-02T05:16:10.872Z,10.20
2023-01-02T05:18:37.868Z,10.22
2023-01-02T05:21:07.662Z,10.25
2023-01-02T05:23:49.572Z,10.26
2023-01-02T05:26:18.088Z,10.27
2023-01-02T05:28:45.111Z,10.26
2023-01-02T05:31:12.624Z,10.33
2023-01-02T05:33:39.699Z,10.35
2023-01-02T05:36:07.848Z,10.37
2023-01-02T05:38:35.575Z,10.43
2023-01-02T05:41:04.367Z,10.46
2023-01-02T05:43:36.208Z,10.46
2023-01-02T05:46:09.240Z,10.48
2023-01-02T05:48:35.896Z,10.54
2023-01-02T05:51:06.705Z,10.59
2023-01-02T05:53:33.758Z,10.64
2023-01-02T05:56:15.669Z,10.59
2023-01-02T05:58:45.097Z,10.63
2023-01-02T06:01:14.613Z,10.59
2023-01-02T06:03:45.746Z,10.59
2023-01-02T06:06:12.927Z,10.68
2023-01-02T06:08:40.263Z,10.67
2023-01-02T06:11:07.787Z,10.70
2023-01-02T06:13:36.923Z,10.73
2023-01-02T06:16:05.166Z,10.74
2023-01-02T06:18:33.833Z,10.73
2023-01-02T06:21:20.146Z,10.73
2023-01-02T06:23:47.521Z,10.79
2023-01-02T06:26:19.677Z,10.80
2023-01-02T06:28:50.228Z,10.79
2023-01-02T06:31:18.915Z,11.11
2023-01-02T06:33:46.015Z,10.87
2023-01-02T06:36:17.985Z,10.85
2023-01-02T06:38:45.626Z,10.85
2023-01-02T06:41:13.541Z,10.86
2023-01-02T06:43:48.405Z,10.86
2023-01-02T06:46:18.006Z,10.83
2023-01-02T06:48:45.425Z,10.87
2023-01-02T06:51:17.883Z,10.88
2023-01-02T06:53:45.039Z,10.92
2023-01-02T06:56:13.142Z,10.95
2023-01-02T06:58:40.140Z,10.90
2023-01-02T07:01:12.593Z,10.92
2023-01-02T07:03:40.171Z,10.98
2023-01-02T07:06:10.245Z,10.94
2023-01-02T07:08:37.261Z,10.92
2023-01-02T07:11:15.851Z,10.97
2023-01-02T07:13:43.865Z,10.98
2023-01-02T07:16:13.745Z,10.99
2023-01-02T07:18:40.827Z,11.09
2023-01-02T07:21:09.292Z,11.08
2023-01-02T07:23:36.433Z,11.08
2023-01-02T07:26:05.374Z,11.08
2023-01-02T07:28:32.882Z,11.08
2023-01-02T07:31:01.711Z,11.09
2023-01-02T07:33:29.914Z,11.12
2023-01-02T07:36:01.405Z,11.15
2023-01-02T07:38:28.386Z,11.14
2023-01-02T07:40:55.520Z,11.15
2023-01-02T07:43:22.811Z,11.18
2023-01-02T07:45:50.803Z,11.15
2023-01-02T07:48:18.606Z,11.15
2023-01-02T07:50:46.138Z,11.17
2023-01-02T07:53:13.735Z,11.12
2023-01-02T07:55:40.726Z,11.10
2023-01-02T07:58:07.735Z,11.11
2023-01-02T08:00:34.481Z,11.10
2023-01-02T08:03:01.590Z,11.05
2023-01-02T08:05:28.545Z,11.08
2023-01-02T08:07:55.267Z,11.10
2023-01-02T08:10:22.767Z,11.10
2023-01-02T08:12:49.744Z,11.12
2023-01-02T08:15:16.580Z,11.17
2023-01-02T08:17:43.362Z,11.22
2023-01-02T08:20:11.325Z,11.26
2023-01-02T08:22:38.219Z,11.26
2023-01-02T08:25:05.543Z,11.27
2023-01-02T08:27:32.605Z,11.29
2023-01-02T08:29:59.779Z,11.28
2023-01-02T08:32:26.585Z,11.31
2023-01-02T08:34:53.518Z,11.33
2023-01-02T08:37:20.288Z,11.33
2023-01-02T08:39:47.242Z,11.34
2023-01-02T08:42:14.021Z,11.33
2023-01-02T08:44:40.721Z,11.40
2023-01-02T08:47:07.486Z,11.39
2023-01-02T08:49:34.212Z,11.44
2023-01-02T08:52:00.939Z,11.48
2023-01-02T08:54:27.789Z,11.47
2023-01-02T08:56:54.558Z,11.49
2023-01-02T08:59:24.515Z,11.45
2023-01-02T09:01:52.394Z,11.51
2023-01-02T09:04:19.987Z,11.51
2023-01-02T09:06:47.572Z,11.53
2023-01-02T09:09:16.942Z,11.67
2023-01-02T09:11:50.427Z,11.55
2023-01-02T09:14:19.617Z,11.52
2023-01-02T09:16:46.397Z,11.53
2023-01-02T09:19:13.792Z,11.55
2023-01-02T09:21:40.573Z,11.66
2023-01-02T09:24:07.928Z,11.70
2023-01-02T09:26:35.492Z,11.71
2023-01-02T09:29:02.212Z,11.77
2023-01-02T09:31:29.015Z,11.72
2023-01-02T09:33:55.795Z,11.75
2023-01-02T09:36:22.999Z,11.82
2023-01-02T09:38:58.112Z,11.85
2023-01-02T09:41:44.256Z,11.90
2023-01-02T09:44:48.948Z,11.94
2023-01-02T09:47:25.931Z,12.03
2023-01-02T09:49:55.817Z,12.02
2023-01-02T09:52:32.511Z,12.08
2023-01-02T09:55:00.179Z,12.08
2023-01-02T09:57:27.048Z,12.12
2023-01-02T10:00:20.055Z,12.18
2023-01-02T10:03:08.348Z,12.22
2023-01-02T10:05:56.598Z,12.32
2023-01-02T10:08:41.591Z,12.37
2023-01-02T10:11:26.868Z,12.41
2023-01-02T10:14:21.348Z,12.49
2023-01-02T10:16:56.124Z,12.66
2023-01-02T10:19:31.381Z,12.73
2023-01-02T10:22:00.828Z,12.82
2023-01-02T10:24:41.781Z,12.92
2023-01-02T10:27:22.460Z,13.02
2023-01-02T10:30:00.599Z,13.02
2023-01-02T10:32:28.187Z,12.91
2023-01-02T10:35:07.142Z,12.95
2023-01-02T10:37:34.491Z,12.94
2023-01-02T10:40:01.489Z,12.99
2023-01-02T10:42:30.847Z,13.01
2023-01-02T10:44:57.768Z,13.08
2023-01-02T10:47:37.826Z,13.11
2023-01-02T10:50:07.827Z,13.16
2023-01-02T10:52:40.619Z,13.17
2023-01-02T10:55:07.598Z,13.24
2023-01-02T10:57:47.009Z,13.25
2023-01-02T11:00:25.747Z,13.18
2023-01-02T11:03:06.013Z,13.20
2023-01-02T11:05:33.106Z,13.15
2023-01-02T11:07:59.813Z,13.14
2023-01-02T11:10:31.432Z,13.14
2023-01-02T11:13:09.666Z,13.15
2023-01-02T11:15:43.524Z,13.25
2023-01-02T11:18:24.590Z,13.17
2023-01-02T11:20:54.916Z,13.23
2023-01-02T11:23:24.579Z,13.15
2023-01-02T11:25:54.272Z,13.11
2023-01-02T11:28:27.876Z,13.10
2023-01-02T11:31:02.161Z,13.17
2023-01-02T11:33:31.926Z,13.18
2023-01-02T11:36:05.976Z,13.22
2023-01-02T11:38:45.385Z,13.17
2023-01-02T11:42:08.458Z,13.19
2023-01-02T11:45:01.450Z,13.21
2023-01-02T11:47:34.076Z,13.23
2023-01-02T11:50:00.986Z,13.26
2023-01-02T11:52:54.345Z,13.29
2023-01-02T11:55:28.758Z,13.33
2023-01-02T11:58:03.443Z,13.31
2023-01-02T12:00:34.150Z,13.31
2023-01-02T12:03:06.727Z,13.30
2023-01-02T12:06:04.100Z,13.27
2023-01-02T12:08:51.613Z,13.35
2023-01-02T12:11:30.932Z,13.32
2023-01-02T12:14:15.569Z,13.26
2023-01-02T12:17:10.333Z,13.20
2023-01-02T12:19:52.185Z,13.25
2023-01-02T12:22:45.257Z,13.33
2023-01-02T12:25:39.140Z,13.33
2023-01-02T12:28:22.447Z,13.29
2023-01-02T12:31:05.646Z,13.31
2023-01-02T12:33:50.557Z,13.30
2023-01-02T12:36:41.326Z,13.23
2023-01-02T12:39:33.182Z,13.24
2023-01-02T12:42:08.597Z,13.24
2023-01-02T12:44:55.242Z,13.23
2023-01-02T12:47:33.287Z,13.20
2023-01-02T12:50:25.865Z,13.23
2023-01-02T12:52:53.328Z,13.18
2023-01-02T12:55:48.063Z,13.18
2023-01-02T12:58:32.464Z,13.17
2023-01-02T13:01:20.840Z,13.19
2023-01-02T13:03:52.144Z,13.16
2023-01-02T13:06:43.762Z,13.11
2023-01-02T13:09:35.912Z,13.04
2023-01-02T13:12:14.432Z,13.09
2023-01-02T13:15:09.771Z,13.08
2023-01-02T13:17:43.441Z,13.12
2023-01-02T13:20:33.365Z,13.12
2023-01-02T13:23:18.245Z,13.15
2023-01-02T13:25:52.490Z,13.18
2023-01-02T13:28:20.725Z,13.18
2023-01-02T13:30:50.559Z,13.17
2023-01-02T13:33:29.126Z,13.22
2023-01-02T13:35:56.046Z,13.14
2023-01-02T13:38:27.272Z,13.15
2023-01-02T13:40:56.805Z,13.17
2023-01-02T13:43:28.358Z,13.17
2023-01-02T13:46:02.595Z,13.09
2023-01-02T13:48:43.686Z,13.00
2023-01-02T13:51:13.420Z,12.93
2023-01-02T13:53:51.913Z,12.76
2023-01-02T13:56:21.364Z,12.55
2023-01-02T13:59:42.502Z,12.57
2023-01-02T14:02:20.904Z,12.41
2023-01-02T14:04:48.192Z,12.42
2023-01-02T14:07:27.289Z,12.21
2023-01-02T14:10:09.255Z,12.00
2023-01-02T14:12:55.507Z,11.92
2023-01-02T14:15:25.360Z,11.86
2023-01-02T14:17:58.178Z,11.75
2023-01-02T14:20:28.233Z,11.71
2023-01-02T14:23:02.917Z,11.51
2023-01-02T14:25:33.892Z,11.39
2023-01-02T14:28:04.363Z,11.39
2023-01-02T14:30:36.449Z,11.27
2023-01-02T14:33:05.658Z,11.19
2023-01-02T14:35:36.057Z,11.16
2023-01-02T14:38:24.226Z,11.17
2023-01-02T14:40:51.884Z,11.11
2023-01-02T14:43:39.074Z,10.97
2023-01-02T14:46:11.312Z,10.96
2023-01-02T14:48:51.059Z,10.87
2023-01-02T14:51:29.804Z,10.85
2023-01-02T14:54:18.382Z,10.69
2023-01-02T14:56:54.407Z,10.66
2023-01-02T14:59:27.813Z,10.66
2023-01-02T15:02:01.154Z,10.64
2023-01-02T15:04:39.167Z,10.50
2023-01-02T15:07:10.513Z,10.55
2023-01-02T15:09:43.777Z,10.40
2023-01-02T15:13:01.866Z,10.36
2023-01-02T15:15:30.492Z,10.36
2023-01-02T15:18:04.117Z,10.37
2023-01-02T15:20:34.410Z,10.30
2023-01-02T15:23:01.494Z,10.33
2023-01-02T15:25:33.426Z,10.27
2023-01-02T15:28:00.154Z,10.25
2023-01-02T15:30:30.908Z,10.29
2023-01-02T15:32:57.864Z,10.26
2023-01-02T15:35:28.480Z,10.19
2023-01-02T15:37:56.148Z,10.07
2023-01-02T15:40:29.107Z,10.05
2023-01-02T15:43:18.279Z,9.97
2023-01-02T15:45:51.544Z,10.04
2023-01-02T15:48:23.087Z,10.09
2023-01-02T15:50:53.262Z,9.92
2023-01-02T15:53:32.415Z,9.79
2023-01-02T15:55:59.338Z,9.71
2023-01-02T15:58:31.693Z,9.62
2023-01-02T16:01:19.038Z,9.48
2023-01-02T16:04:02.639Z,9.49
2023-01-02T16:06:39.409Z,9.33
2023-01-02T16:09:16.734Z,9.29
2023-01-02T16:11:50.134Z,9.23
2023-01-02T16:14:34.518Z,9.27
2023-01-02T16:17:04.243Z,9.31
2023-01-02T16:19:57.954Z,9.27
2023-01-02T16:22:34.682Z,9.30
2023-01-02T16:25:18.144Z,9.38
2023-01-02T16:27:50.970Z,9.25
2023-01-02T16:30:28.668Z,9.26
2023-01-02T16:32:56.481Z,9.31
2023-01-02T16:35:30.056Z,9.32
2023-01-02T16:38:06.440Z,9.37
2023-01-02T16:41:01.492Z,9.39
2023-01-02T16:43:31.019Z,9.30
2023-01-02T16:45:58.965Z,9.29
2023-01-02T16:48:29.758Z,9.33
2023-01-02T16:50:58.160Z,9.30
2023-01-02T16:53:31.016Z,9.36
2023-01-02T16:55:58.588Z,9.33
2023-01-02T16:58:25.898Z,9.27
2023-01-02T17:00:54.274Z,9.31
2023-01-02T17:03:26.524Z,9.38
2023-01-02T17:06:03.337Z,9.34
2023-01-02T17:08:31.759Z,9.32
2023-01-02T17:10:59.453Z,9.34
2023-01-02T17:13:26.685Z,9.29
2023-01-02T17:15:53.802Z,9.22
2023-01-02T17:18:21.312Z,9.26
2023-01-02T17:20:48.581Z,9.25
2023-01-02T17:23:18.800Z,9.18
2023-01-02T17:25:46.271Z,9.18
2023-01-02T17:28:13.892Z,9.08
2023-01-02T17:30:45.652Z,9.07
2023-01-02T17:33:12.690Z,9.02
2023-01-02T17:35:40.003Z,8.94
2023-01-02T17:38:07.244Z,8.92
2023-01-02T17:40:34.226Z,8.77
2023-01-02T17:43:01.096Z,8.71
2023-01-02T17:45:27.944Z,8.79
2023-01-02T17:48:03.581Z,8.86
2023-01-02T17:50:32.712Z,8.87
2023-01-02T17:53:00.121Z,8.92
2023-01-02T17:55:26.897Z,8.80
2023-01-02T17:57:53.632Z,8.85
2023-01-02T18:00:23.360Z,8.83
2023-01-02T18:02:52.153Z,8.90
2023-01-02T18:05:19.059Z,8.81
2023-01-02T18:07:46.022Z,8.92
2023-01-02T18:10:17.535Z,8.83
2023-01-02T18:12:46.275Z,8.88
2023-01-02T18:15:15.623Z,8.89
2023-01-02T18:17:43.116Z,8.85
2023-01-02T18:20:23.087Z,8.90
2023-01-02T18:22:51.107Z,8.97
2023-01-02T18:25:19.596Z,8.90
2023-01-02T18:27:47.729Z,9.01
2023-01-02T18:30:23.575Z,8.98
2023-01-02T18:33:17.233Z,8.92
2023-01-02T18:36:00.436Z,8.97
2023-01-02T18:38:34.684Z,8.85
2023-01-02T18:41:15.767Z,8.83
2023-01-02T18:43:44.477Z,8.76
2023-01-02T18:46:15.639Z,8.70
2023-01-02T18:48:42.882Z,8.62
2023-01-02T18:51:18.726Z,8.65
2023-01-02T18:53:50.685Z,8.59
2023-01-02T18:56:20.841Z,8.66
2023-01-02T18:59:11.181Z,8.62
2023-01-02T19:01:44.872Z,8.70
2023-01-02T19:04:27.317Z,8.66
2023-01-02T19:07:00.058Z,8.74
2023-01-02T19:09:38.081Z,8.70
2023-01-02T19:12:32.847Z,8.73
2023-01-02T19:15:01.099Z,8.75
2023-01-02T19:17:32.215Z,8.76
2023-01-02T19:20:00.294Z,8.68
2023-01-02T19:22:34.773Z,8.73
2023-01-02T19:25:22.783Z,8.68
2023-01-02T19:27:52.568Z,8.93
2023-01-02T19:30:38.067Z,8.92
2023-01-02T19:33:37.644Z,9.33
2023-01-02T19:36:05.887Z,9.27
2023-01-02T19:38:34.385Z,9.15
2023-01-02T19:41:01.765Z,9.00
2023-01-02T19:43:28.850Z,8.95
2023-01-02T19:45:55.590Z,8.93
2023-01-02T19:48:22.811Z,8.97
2023-01-02T19:50:50.022Z,8.88
2023-01-02T19:53:17.081Z,8.83
2023-01-02T19:55:43.956Z,8.90
2023-01-02T19:58:10.866Z,8.92
2023-01-02T20:00:37.882Z,8.86
2023-01-02T20:03:05.629Z,8.85
2023-01-02T20:05:32.485Z,8.89
2023-01-02T20:07:59.617Z,8.87
2023-01-02T20:10:26.529Z,8.88
2023-01-02T20:12:53.787Z,8.90
2023-01-02T20:15:26.057Z,8.91
2023-01-02T20:17:54.178Z,8.87
2023-01-02T20:20:24.278Z,8.85
2023-01-02T20:22:52.007Z,8.92
2023-01-02T20:25:25.274Z,8.91
2023-01-02T20:27:56.585Z,8.82
2023-01-02T20:30:25.225Z,8.91
2023-01-02T20:32:54.265Z,8.78
2023-01-02T20:35:21.374Z,8.85
2023-01-02T20:37:48.699Z,8.82
2023-01-02T20:40:15.495Z,8.85
2023-01-02T20:42:42.545Z,8.83
2023-01-02T20:45:09.775Z,8.80
2023-01-02T20:47:37.811Z,8.88
2023-01-02T20:50:05.988Z,8.92
2023-01-02T20:52:33.491Z,8.81
2023-01-02T20:55:00.554Z,8.85
2023-01-02T20:57:27.496Z,8.86
2023-01-02T20:59:54.246Z,8.83
2023-01-02T21:02:21.162Z,8.85
2023-01-02T21:04:48.086Z,8.87
2023-01-02T21:07:14.812Z,8.80
2023-01-02T21:09:41.484Z,8.76
2023-01-02T21:12:28.301Z,8.79
2023-01-02T21:15:11.093Z,8.74
2023-01-02T21:17:39.178Z,8.74
2023-01-02T21:20:06.423Z,8.88
2023-01-02T21:22:33.155Z,8.71
2023-01-02T21:24:59.896Z,8.72
2023-01-02T21:27:26.683Z,8.65
2023-01-02T21:29:56.085Z,8.61
2023-01-02T21:32:25.645Z,8.62
2023-01-02T21:34:52.319Z,8.51
2023-01-02T21:37:19.021Z,8.53
2023-01-02T21:39:48.173Z,8.45
2023-01-02T21:42:17.791Z,8.37
2023-01-02T21:44:48.207Z,8.37
2023-01-02T21:47:17.018Z,8.33
2023-01-02T21:49:44.447Z,8.30
2023-01-02T21:52:11.536Z,8.32
2023-01-02T21:54:38.211Z,8.24
2023-01-02T21:57:05.377Z,8.24
2023-01-02T21:59:32.552Z,8.18
2023-01-02T22:02:00.016Z,8.11
2023-01-02T22:04:26.954Z,8.08
2023-01-02T22:09:40.585Z,8.00
2023-01-02T22:12:07.834Z,8.03
2023-01-02T22:14:36.860Z,7.98
2023-01-02T22:17:06.102Z,7.90
2023-01-02T22:19:33.629Z,7.79
2023-01-02T22:22:01.224Z,7.74
2023-01-02T22:24:28.453Z,7.82
2023-01-02T22:26:58.462Z,7.73
2023-01-02T22:29:51.526Z,7.76
2023-01-02T22:32:15.156Z,7.67
2023-01-02T22:34:44.168Z,7.67
2023-01-02T22:37:16.921Z,7.68
2023-01-02T22:39:47.023Z,7.70
2023-01-02T22:45:29.089Z,7.82
2023-01-02T22:48:03.694Z,7.69
2023-01-02T22:50:40.600Z,7.69
2023-01-02T22:53:15.565Z,7.70
2023-01-02T22:55:42.543Z,7.63
2023-01-02T22:58:09.434Z,7.61
2023-01-02T23:00:36.237Z,7.62
2023-01-02T23:03:02.951Z,7.63
2023-01-02T23:05:29.847Z,7.65
2023-01-02T23:07:56.739Z,7.67
2023-01-02T23:10:23.670Z,7.67
2023-01-02T23:12:50.388Z,7.70
2023-01-02T23:15:17.215Z,7.73
2023-01-02T23:18:02.713Z,7.71
2023-01-02T23:20:29.620Z,7.74
2023-01-02T23:22:56.593Z,7.77
2023-01-02T23:25:23.806Z,7.75
2023-01-02T23:27:50.688Z,7.79
2023-01-02T23:30:18.016Z,7.77
2023-01-02T23:32:45.293Z,7.71
2023-01-02T23:35:11.973Z,7.82
2023-01-02T23:37:38.836Z,7.72
2023-01-02T23:40:06.300Z,7.68
2023-01-02T23:42:33.212Z,7.63
2023-01-02T23:45:00.236Z,7.72
2023-01-02T23:47:26.983Z,7.61
2023-01-02T23:49:53.719Z,7.45
2023-01-02T23:52:20.719Z,7.38
2023-01-02T23:54:47.563Z,7.42
2023-01-02T23:57:14.372Z,7.35
2023-01-02T23:59:41.214Z,7.29
